Terminal Aerodrome Forecast
Issued by NWS

Current Version | Previous Version | Graphics & Text | Print | Product List | Glossary On
Versions: 1 2 3 4 5 6 7 8 9 10 11 12 13 14 15 16 17 18 19 20 21 22 23 24 25 26 27 28 29 30 31 32 33
386
FTUS41 KRNK 121920 AAA
TAFLWB
TAF AMD
KLWB 121920Z 1219/1318 21007KT 2SM -SN BKN012 OVC022
      TEMPO 1220/1222 5SM -SHSN OVC035
     FM122200 29010G20KT 5SM -SHSN OVC025
     FM130300 30012G25KT 3SM -SHSN OVC012
     FM131200 30010G20KT P6SM -SHSN OVC020=

USA.gov is the U.S. government's official web portal to all federal, state and local government web resources and services.